Time;durP1;ratioP1;P1;durP2;ratioP2;P2;SDS_P1;SDS_P2;PMS_P1;PMS_P2;Temp;Humidity;BMP_temperature;BMP_pressure;BME280_temperature;BME280_humidity;BME280_pressure;Samples;Min_cycle;Max_cycle;Signal;HPM_P1;HPM_P2
2022/03/31 00:00:12;;;;;;;8.93;4.70;;;3.70;86.80;;;;;;5064858;28;20036;-79
2022/03/31 00:02:38;;;;;;;10.82;4.75;;;3.70;86.90;;;;;;5078530;28;20060;-79
2022/03/31 00:05:03;;;;;;;8.35;4.20;;;3.60;86.90;;;;;;5054125;28;20063;-79
2022/03/31 00:07:30;;;;;;;8.65;3.72;;;3.60;86.70;;;;;;5053747;28;20540;-79
2022/03/31 00:09:55;;;;;;;11.30;4.50;;;3.60;86.70;;;;;;5072797;28;20053;-79
2022/03/31 00:12:21;;;;;;;9.15;4.43;;;3.60;86.50;;;;;;5065966;28;20055;-79
2022/03/31 00:14:47;;;;;;;9.50;4.32;;;3.60;86.30;;;;;;5065226;28;20032;-79
2022/03/31 00:17:13;;;;;;;9.57;4.25;;;3.60;86.30;;;;;;5071431;28;20036;-79
2022/03/31 00:19:39;;;;;;;9.02;3.35;;;3.50;86.00;;;;;;5056220;28;20038;-80
2022/03/31 00:22:04;;;;;;;9.95;3.58;;;3.50;85.90;;;;;;5053408;28;20128;-80
2022/03/31 00:24:30;;;;;;;7.78;3.63;;;3.50;85.70;;;;;;5053045;28;20032;-80
2022/03/31 00:26:55;;;;;;;8.38;3.60;;;3.50;85.70;;;;;;5053950;28;20031;-79
2022/03/31 00:29:22;;;;;;;8.55;3.60;;;3.50;85.60;;;;;;5052768;28;20135;-78
2022/03/31 00:31:48;;;;;;;8.68;3.40;;;3.50;85.50;;;;;;5045233;28;20476;-78
2022/03/31 00:34:13;;;;;;;9.15;3.08;;;3.50;85.40;;;;;;5058664;28;20086;-78
2022/03/31 00:36:39;;;;;;;4.85;2.92;;;3.40;84.70;;;;;;5054636;28;20384;-78
2022/03/31 00:41:49;;;;;;;7.05;2.50;;;3.30;84.00;;;;;;5072357;28;20032;-78
2022/03/31 00:44:14;;;;;;;6.07;2.58;;;3.30;83.90;;;;;;5067938;28;20457;-78
2022/03/31 00:46:49;;;;;;;6.10;2.67;;;3.30;84.30;;;;;;5053450;28;20020;-78
2022/03/31 00:49:16;;;;;;;4.65;2.53;;;3.30;84.50;;;;;;5050638;28;20674;-78
2022/03/31 00:51:42;;;;;;;6.20;2.90;;;3.20;84.80;;;;;;5065269;28;20029;-78
2022/03/31 00:54:07;;;;;;;3.95;2.40;;;3.20;84.90;;;;;;5047650;28;20035;-78
2022/03/31 00:56:33;;;;;;;5.97;2.40;;;3.20;84.80;;;;;;5066192;28;20032;-79
2022/03/31 00:58:59;;;;;;;4.22;2.13;;;3.10;84.60;;;;;;5052792;28;20040;-79
2022/03/31 01:01:26;;;;;;;5.18;2.63;;;3.10;83.90;;;;;;5052668;28;20025;-79
2022/03/31 01:03:51;;;;;;;6.93;2.53;;;3.00;84.00;;;;;;5048562;28;20563;-79
2022/03/31 01:06:17;;;;;;;3.75;2.08;;;3.00;84.10;;;;;;5050644;28;20033;-79
2022/03/31 01:08:42;;;;;;;7.90;2.05;;;3.00;83.80;;;;;;5046273;28;20033;-79
2022/03/31 01:11:08;;;;;;;3.67;2.30;;;3.00;83.30;;;;;;5068434;28;20365;-78
2022/03/31 01:13:33;;;;;;;4.72;2.22;;;2.90;83.30;;;;;;5055271;28;20387;-78
2022/03/31 01:15:59;;;;;;;6.63;2.10;;;2.90;83.20;;;;;;5064982;28;20047;-78
2022/03/31 01:18:25;;;;;;;4.75;2.00;;;2.90;83.30;;;;;;5059304;28;20103;-78
2022/03/31 01:20:50;;;;;;;5.38;2.35;;;2.90;83.30;;;;;;5064359;28;20029;-78
2022/03/31 01:23:16;;;;;;;4.10;2.40;;;2.80;82.90;;;;;;5056346;28;20399;-78
2022/03/31 01:25:43;;;;;;;5.88;2.35;;;2.80;83.00;;;;;;5052889;28;20029;-78
2022/03/31 01:28:08;;;;;;;4.68;2.65;;;2.80;83.10;;;;;;5055861;28;20162;-78
2022/03/31 01:30:34;;;;;;;4.97;2.53;;;2.80;83.30;;;;;;5066273;28;20029;-78
2022/03/31 01:33:00;;;;;;;6.55;2.55;;;2.70;83.60;;;;;;5058891;28;20028;-78
2022/03/31 01:35:26;;;;;;;6.30;2.58;;;2.70;83.50;;;;;;5067325;28;20098;-79
2022/03/31 01:37:52;;;;;;;4.95;2.58;;;2.70;83.80;;;;;;5068466;28;20056;-78
2022/03/31 01:40:18;;;;;;;4.85;2.55;;;2.70;83.80;;;;;;5071963;28;20443;-78
2022/03/31 01:42:45;;;;;;;6.90;2.60;;;2.60;83.80;;;;;;5070800;28;20063;-78
2022/03/31 01:45:15;;;;;;;5.35;2.65;;;2.60;83.90;;;;;;5051746;28;20036;-78
2022/03/31 01:47:41;;;;;;;6.13;2.93;;;2.70;84.00;;;;;;5060908;28;20136;-78
2022/03/31 01:50:09;;;;;;;5.72;2.90;;;2.70;84.20;;;;;;5039433;28;20032;-78
2022/03/31 01:52:35;;;;;;;6.55;3.33;;;2.60;84.10;;;;;;5060787;28;20032;-78
2022/03/31 01:55:01;;;;;;;6.90;3.15;;;2.60;84.10;;;;;;5055679;28;20124;-78
2022/03/31 01:57:26;;;;;;;4.85;3.15;;;2.60;84.20;;;;;;5055769;28;20090;-79
2022/03/31 01:59:52;;;;;;;6.18;3.10;;;2.60;84.20;;;;;;5048997;28;20021;-78
2022/03/31 02:02:18;;;;;;;7.78;2.88;;;2.60;84.30;;;;;;5053106;28;20381;-78
2022/03/31 02:04:43;;;;;;;7.97;3.95;;;2.60;84.50;;;;;;5056118;28;20048;-78
2022/03/31 02:07:09;;;;;;;5.95;3.45;;;2.60;84.60;;;;;;5052142;28;20145;-78
2022/03/31 02:09:35;;;;;;;6.55;3.33;;;2.60;84.70;;;;;;5052408;28;20020;-78
2022/03/31 02:12:02;;;;;;;10.52;3.65;;;2.60;84.90;;;;;;5052914;28;20035;-78
2022/03/31 02:14:28;;;;;;;6.28;3.38;;;2.60;85.20;;;;;;5050386;28;20039;-78
2022/03/31 02:16:55;;;;;;;6.65;3.67;;;2.60;85.50;;;;;;5051419;28;20476;-78
2022/03/31 02:19:21;;;;;;;6.13;3.75;;;2.50;85.80;;;;;;5061210;28;20048;-78
2022/03/31 02:21:46;;;;;;;4.97;3.40;;;2.40;86.30;;;;;;5050133;28;20107;-78
2022/03/31 02:24:12;;;;;;;5.85;4.03;;;2.30;86.80;;;;;;5068318;28;20047;-78
2022/03/31 02:26:38;;;;;;;7.10;4.15;;;2.40;87.60;;;;;;5051395;28;20055;-78
2022/03/31 02:29:04;;;;;;;5.90;3.72;;;2.20;88.10;;;;;;5064469;28;20024;-78
2022/03/31 02:31:31;;;;;;;7.63;4.53;;;2.10;88.60;;;;;;5061349;28;20025;-78
2022/03/31 02:33:57;;;;;;;6.63;3.63;;;2.10;88.90;;;;;;5057235;28;20472;-78
2022/03/31 02:36:23;;;;;;;9.15;4.53;;;2.10;89.10;;;;;;5047498;28;20052;-78
2022/03/31 02:38:49;;;;;;;9.48;4.72;;;1.90;89.60;;;;;;5065969;28;20465;-78
2022/03/31 02:41:15;;;;;;;7.28;4.80;;;1.80;89.90;;;;;;5065900;28;20050;-78
2022/03/31 02:43:40;;;;;;;7.80;5.13;;;1.70;90.10;;;;;;5062298;28;20432;-78
2022/03/31 02:46:08;;;;;;;8.25;4.90;;;1.60;90.40;;;;;;5045323;28;20020;-78
2022/03/31 02:48:33;;;;;;;9.15;5.50;;;1.40;90.50;;;;;;5046421;28;20036;-78
2022/03/31 02:50:59;;;;;;;10.05;6.10;;;1.40;90.90;;;;;;5054332;28;20683;-77
2022/03/31 02:56:08;;;;;;;8.10;5.28;;;1.20;91.30;;;;;;5064663;28;20495;-77
2022/03/31 02:58:34;;;;;;;10.52;6.70;;;1.10;91.60;;;;;;5050062;28;20021;-78
2022/03/31 03:01:00;;;;;;;10.10;6.70;;;1.10;91.80;;;;;;5046397;28;20027;-78
2022/03/31 03:03:25;;;;;;;13.00;6.47;;;1.10;91.90;;;;;;5065918;28;20028;-78
2022/03/31 03:05:51;;;;;;;10.38;7.15;;;1.10;92.00;;;;;;5048616;28;20112;-78
2022/03/31 03:08:16;;;;;;;9.93;7.18;;;1.10;92.20;;;;;;5047379;28;20035;-78
2022/03/31 03:10:42;;;;;;;13.13;7.53;;;1.10;92.40;;;;;;5055184;28;20093;-78
2022/03/31 03:13:09;;;;;;;11.30;7.50;;;1.10;92.60;;;;;;5065394;28;20029;-78
2022/03/31 03:15:36;;;;;;;11.98;8.20;;;1.00;92.60;;;;;;5066025;28;20052;-78
2022/03/31 03:18:02;;;;;;;12.38;8.70;;;1.00;92.70;;;;;;5048341;28;20123;-78
2022/03/31 03:20:28;;;;;;;13.60;8.68;;;1.00;92.80;;;;;;5064333;28;20107;-78
2022/03/31 03:22:54;;;;;;;15.23;9.27;;;1.00;92.90;;;;;;5064099;28;20024;-78
2022/03/31 03:25:22;;;;;;;14.50;9.68;;;0.90;93.00;;;;;;5061333;28;20032;-78
2022/03/31 03:27:48;;;;;;;14.27;9.65;;;1.00;93.20;;;;;;5045689;28;20037;-79
2022/03/31 03:30:17;;;;;;;15.75;9.95;;;0.90;93.20;;;;;;5048734;28;20029;-79
2022/03/31 03:32:42;;;;;;;14.68;9.25;;;1.00;93.20;;;;;;5070058;28;20028;-79
2022/03/31 03:35:10;;;;;;;15.68;10.93;;;0.90;93.30;;;;;;5049874;28;20055;-79
2022/03/31 03:37:38;;;;;;;14.82;9.70;;;0.90;93.30;;;;;;5050748;28;20085;-79
2022/03/31 03:40:05;;;;;;;14.48;10.23;;;1.00;93.40;;;;;;5052773;28;20100;-78
2022/03/31 03:42:32;;;;;;;13.95;10.52;;;0.90;93.40;;;;;;5047767;28;20031;-78
2022/03/31 03:44:59;;;;;;;16.10;10.63;;;0.90;93.40;;;;;;5053247;28;20032;-78
2022/03/31 03:47:25;;;;;;;15.35;10.52;;;0.90;93.40;;;;;;5046720;28;20029;-78
2022/03/31 03:49:52;;;;;;;16.17;10.65;;;0.80;93.50;;;;;;5049593;28;20063;-78
2022/03/31 03:52:18;;;;;;;17.35;11.60;;;0.80;93.60;;;;;;5049617;28;20055;-80
2022/03/31 03:54:44;;;;;;;17.17;10.70;;;0.90;93.70;;;;;;5052010;28;20362;-81
2022/03/31 03:57:09;;;;;;;19.20;12.30;;;0.90;93.70;;;;;;5051293;28;20068;-81
2022/03/31 03:59:35;;;;;;;15.43;11.80;;;0.90;93.70;;;;;;5048533;28;20400;-79
2022/03/31 04:02:01;;;;;;;18.23;12.35;;;0.90;93.70;;;;;;5051636;28;20022;-79
2022/03/31 04:04:29;;;;;;;15.80;11.93;;;0.80;93.70;;;;;;5045250;28;20037;-79
2022/03/31 04:06:57;;;;;;;16.40;11.38;;;0.90;93.90;;;;;;5051576;28;20021;-79
2022/03/31 04:09:23;;;;;;;18.70;11.95;;;0.90;93.70;;;;;;5049185;28;20060;-79
2022/03/31 04:11:48;;;;;;;19.58;11.90;;;0.90;93.90;;;;;;5053056;28;20064;-79
2022/03/31 04:14:14;;;;;;;21.20;13.18;;;0.90;93.80;;;;;;5039196;28;20029;-79
2022/03/31 04:16:40;;;;;;;17.58;12.25;;;0.90;93.80;;;;;;5044682;28;22899;-79
2022/03/31 04:19:08;;;;;;;19.17;12.45;;;0.90;93.80;;;;;;5039452;28;20033;-78
2022/03/31 04:21:38;;;;;;;19.67;12.77;;;0.90;93.90;;;;;;5046264;28;20025;-78
2022/03/31 04:24:05;;;;;;;18.08;12.18;;;0.90;93.90;;;;;;5054712;28;20077;-79
2022/03/31 04:26:31;;;;;;;21.98;13.18;;;0.90;93.80;;;;;;5047907;28;20055;-79
2022/03/31 04:28:56;;;;;;;19.20;11.25;;;0.80;93.90;;;;;;5044569;28;20033;-78
2022/03/31 04:31:22;;;;;;;21.25;13.65;;;0.80;93.90;;;;;;5041856;28;20051;-78
2022/03/31 04:33:47;;;;;;;17.75;12.32;;;0.80;93.90;;;;;;5046255;28;20029;-78
2022/03/31 04:36:13;;;;;;;19.90;13.13;;;0.80;93.90;;;;;;5048921;28;20500;-79
2022/03/31 04:38:39;;;;;;;23.17;13.95;;;0.90;93.90;;;;;;5036731;28;20041;-80
2022/03/31 04:41:04;;;;;;;20.42;13.80;;;0.80;93.90;;;;;;5046150;28;20036;-79
2022/03/31 04:43:30;;;;;;;20.23;13.48;;;0.80;93.80;;;;;;5038656;28;20066;-80
2022/03/31 04:45:56;;;;;;;18.17;12.70;;;0.80;94.00;;;;;;5046552;28;20052;-79
2022/03/31 04:48:22;;;;;;;19.42;13.32;;;0.80;94.00;;;;;;5051575;28;20064;-79
2022/03/31 04:50:48;;;;;;;21.65;14.82;;;0.80;94.00;;;;;;5048754;28;20763;-79
2022/03/31 04:53:14;;;;;;;19.70;13.68;;;0.80;94.10;;;;;;5055293;28;20040;-79
2022/03/31 04:55:41;;;;;;;17.35;12.52;;;0.80;94.00;;;;;;5054130;28;20036;-80
2022/03/31 04:58:06;;;;;;;18.20;13.38;;;0.80;94.00;;;;;;5045091;28;20029;-79
2022/03/31 05:00:32;;;;;;;19.65;13.65;;;0.90;94.00;;;;;;5048334;28;20033;-79
2022/03/31 05:02:59;;;;;;;20.77;13.57;;;0.80;94.00;;;;;;5047695;28;20032;-80
2022/03/31 05:05:25;;;;;;;22.10;13.75;;;0.90;94.00;;;;;;5041299;28;20030;-78
2022/03/31 05:07:50;;;;;;;21.13;13.73;;;0.90;94.00;;;;;;5048566;28;20024;-78
2022/03/31 05:10:16;;;;;;;22.67;14.18;;;0.80;93.90;;;;;;5042888;28;20050;-79
2022/03/31 05:12:41;;;;;;;19.67;13.40;;;0.80;94.00;;;;;;5040861;28;20083;-79
2022/03/31 05:15:07;;;;;;;20.05;13.60;;;0.80;94.00;;;;;;5044535;28;20503;-79
2022/03/31 05:17:37;;;;;;;20.33;13.45;;;0.80;94.00;;;;;;5044039;28;20040;-79
2022/03/31 05:20:10;;;;;;;23.38;14.55;;;0.90;94.10;;;;;;5043677;28;20410;-78
2022/03/31 05:22:38;;;;;;;19.30;13.20;;;0.90;93.90;;;;;;5045249;28;20083;-79
2022/03/31 05:25:07;;;;;;;20.60;13.32;;;0.90;93.90;;;;;;5047239;28;20029;-79
2022/03/31 05:27:32;;;;;;;18.85;13.18;;;0.90;93.90;;;;;;5043344;28;20107;-78
2022/03/31 05:29:58;;;;;;;18.48;13.50;;;0.90;93.80;;;;;;5060436;28;20558;-78
2022/03/31 05:32:24;;;;;;;21.13;13.70;;;0.80;93.90;;;;;;5039866;28;20029;-79
2022/03/31 05:34:51;;;;;;;22.75;13.50;;;0.90;94.00;;;;;;5037586;28;20044;-78
2022/03/31 05:37:16;;;;;;;18.85;13.43;;;0.80;93.80;;;;;;5063159;28;20059;-78
2022/03/31 05:39:42;;;;;;;20.90;13.38;;;0.80;93.90;;;;;;5061374;28;20468;-78
2022/03/31 05:42:08;;;;;;;21.27;13.15;;;0.80;93.80;;;;;;5052264;28;20123;-78
2022/03/31 05:44:33;;;;;;;18.25;12.98;;;0.90;93.90;;;;;;5050861;28;20120;-78
2022/03/31 05:46:59;;;;;;;19.50;12.80;;;0.80;93.90;;;;;;5054420;28;20407;-78
2022/03/31 05:49:24;;;;;;;18.67;12.90;;;0.90;93.90;;;;;;5062096;28;20052;-79
2022/03/31 05:51:50;;;;;;;19.65;14.38;;;0.90;93.90;;;;;;5057671;28;20393;-79
2022/03/31 05:54:16;;;;;;;20.77;13.82;;;0.90;93.90;;;;;;5070274;28;20036;-79
2022/03/31 05:56:43;;;;;;;20.08;13.55;;;0.80;93.90;;;;;;5071268;28;20029;-79
2022/03/31 05:59:09;;;;;;;18.15;13.43;;;0.90;93.80;;;;;;5067794;28;20044;-79
2022/03/31 06:01:34;;;;;;;16.45;11.75;;;0.80;93.90;;;;;;5075311;28;20549;-79
2022/03/31 06:04:00;;;;;;;18.83;13.32;;;0.80;93.90;;;;;;5044967;28;20028;-79
2022/03/31 06:06:25;;;;;;;18.85;12.63;;;0.80;93.90;;;;;;5091058;28;20498;-79
2022/03/31 06:08:51;;;;;;;19.02;12.55;;;0.80;93.90;;;;;;5054080;28;20449;-79
2022/03/31 06:11:17;;;;;;;17.27;12.43;;;0.80;93.90;;;;;;5071021;28;20060;-79
2022/03/31 06:13:43;;;;;;;16.38;11.48;;;0.80;93.90;;;;;;5057219;28;20419;-79
2022/03/31 06:16:11;;;;;;;17.92;11.88;;;0.90;93.90;;;;;;5065285;28;20389;-79
2022/03/31 06:18:36;;;;;;;16.20;11.13;;;0.80;93.80;;;;;;5073176;28;20032;-79
2022/03/31 06:21:02;;;;;;;17.70;12.43;;;0.80;94.00;;;;;;5075002;28;20082;-79
2022/03/31 06:23:28;;;;;;;18.42;11.73;;;0.80;93.80;;;;;;5074013;28;20490;-79
2022/03/31 06:25:54;;;;;;;16.88;11.60;;;0.80;93.90;;;;;;5083767;28;20020;-79
2022/03/31 06:28:19;;;;;;;17.00;11.75;;;0.80;93.80;;;;;;5074633;28;20502;-79
2022/03/31 06:30:48;;;;;;;21.17;11.93;;;0.80;93.80;;;;;;5074597;28;20112;-79
2022/03/31 06:33:18;;;;;;;18.77;11.85;;;0.80;93.80;;;;;;5066770;28;20032;-79
2022/03/31 06:35:44;;;;;;;19.50;11.93;;;0.90;93.90;;;;;;5068782;28;20040;-79
2022/03/31 06:38:11;;;;;;;15.60;11.60;;;0.80;93.90;;;;;;5059697;28;20028;-79
2022/03/31 06:40:37;;;;;;;18.10;10.27;;;0.80;93.80;;;;;;5060103;28;20379;-79
2022/03/31 06:43:04;;;;;;;14.80;10.00;;;0.80;93.90;;;;;;5060365;28;20434;-79
2022/03/31 06:45:30;;;;;;;16.52;11.30;;;0.70;93.80;;;;;;5073716;28;20391;-79
2022/03/31 06:47:57;;;;;;;17.73;12.13;;;0.80;94.00;;;;;;5057707;28;20036;-79
2022/03/31 06:50:22;;;;;;;18.00;11.88;;;0.70;93.80;;;;;;5065922;28;20028;-79
2022/03/31 06:52:48;;;;;;;18.02;10.98;;;0.70;94.00;;;;;;5052327;28;20043;-79
2022/03/31 06:55:13;;;;;;;15.93;9.75;;;0.70;94.00;;;;;;5072862;28;20031;-79
2022/03/31 06:57:39;;;;;;;15.98;10.82;;;0.60;94.00;;;;;;5042178;28;20029;-79
2022/03/31 07:00:06;;;;;;;13.85;8.23;;;0.60;94.10;;;;;;5069441;28;20388;-79
2022/03/31 07:02:31;;;;;;;14.35;9.93;;;0.50;93.90;;;;;;5083080;28;20143;-79
2022/03/31 07:04:57;;;;;;;13.80;9.88;;;0.60;94.10;;;;;;5074075;28;20116;-78
2022/03/31 07:07:24;;;;;;;17.25;11.23;;;0.70;94.10;;;;;;5074364;28;20467;-79
2022/03/31 07:09:51;;;;;;;18.25;11.52;;;0.70;94.20;;;;;;5054087;28;20031;-79
2022/03/31 07:12:16;;;;;;;13.77;9.88;;;0.70;94.20;;;;;;5052635;28;20058;-79
2022/03/31 07:14:43;;;;;;;15.20;10.75;;;0.70;94.10;;;;;;5057259;28;20048;-79
2022/03/31 07:17:09;;;;;;;15.20;10.68;;;0.70;94.20;;;;;;5077204;28;20085;-79
2022/03/31 07:19:35;;;;;;;15.93;11.07;;;0.70;94.20;;;;;;5085324;28;20070;-79
2022/03/31 07:22:01;;;;;;;15.30;10.75;;;0.70;94.20;;;;;;5082067;28;20025;-79
2022/03/31 07:24:27;;;;;;;18.15;10.38;;;0.80;94.30;;;;;;5074390;28;20033;-79
2022/03/31 07:26:52;;;;;;;14.25;11.05;;;0.60;94.00;;;;;;5055614;28;20071;-79
2022/03/31 07:29:18;;;;;;;15.75;10.75;;;0.70;94.20;;;;;;5067134;28;20074;-79
2022/03/31 07:31:43;;;;;;;15.65;11.55;;;0.80;94.10;;;;;;5075437;28;20070;-79
2022/03/31 07:34:09;;;;;;;16.83;11.20;;;0.70;94.10;;;;;;5068858;28;20028;-80
2022/03/31 07:36:34;;;;;;;15.60;10.98;;;0.80;94.10;;;;;;5070464;28;21739;-79
2022/03/31 07:39:00;;;;;;;14.80;10.90;;;0.80;94.10;;;;;;5052403;28;20032;-79
2022/03/31 07:41:25;;;;;;;15.18;10.43;;;0.80;94.00;;;;;;5059686;28;20024;-79
2022/03/31 07:43:51;;;;;;;15.85;10.57;;;0.80;94.00;;;;;;5055911;28;20063;-79
2022/03/31 07:46:16;;;;;;;14.63;11.13;;;0.90;94.00;;;;;;5072110;28;20024;-79
2022/03/31 07:48:42;;;;;;;16.83;11.30;;;0.90;93.80;;;;;;5073368;28;20097;-79
2022/03/31 07:51:08;;;;;;;14.98;10.75;;;0.90;93.70;;;;;;5058747;28;20502;-79
2022/03/31 07:53:34;;;;;;;17.52;11.90;;;1.00;93.80;;;;;;5079847;28;20032;-79
2022/03/31 07:56:04;;;;;;;14.65;10.48;;;1.10;93.80;;;;;;5072001;28;20024;-80
2022/03/31 07:58:30;;;;;;;15.32;10.45;;;1.10;93.40;;;;;;5071308;28;20074;-79
2022/03/31 08:00:56;;;;;;;14.00;9.85;;;1.20;93.50;;;;;;5078075;28;20384;-79
2022/03/31 08:03:25;;;;;;;14.02;10.23;;;1.20;93.40;;;;;;5064251;28;20032;-79
2022/03/31 08:05:51;;;;;;;16.85;10.23;;;1.40;93.40;;;;;;5073194;28;20025;-79
2022/03/31 08:08:17;;;;;;;15.48;10.02;;;1.40;93.10;;;;;;5055169;28;20107;-80
2022/03/31 08:10:43;;;;;;;12.48;8.88;;;1.50;93.10;;;;;;5065719;28;20440;-80
2022/03/31 08:13:09;;;;;;;14.30;10.18;;;1.70;92.90;;;;;;5053638;28;20082;-80
2022/03/31 08:15:35;;;;;;;12.98;9.93;;;1.70;92.80;;;;;;5054442;28;20036;-80
2022/03/31 08:18:01;;;;;;;14.57;8.57;;;1.70;92.40;;;;;;5079346;28;20047;-80
2022/03/31 08:20:27;;;;;;;13.57;8.85;;;1.60;91.60;;;;;;5052206;28;20389;-80
2022/03/31 08:22:53;;;;;;;13.02;8.88;;;1.90;92.40;;;;;;5052726;28;20023;-79
2022/03/31 08:25:19;;;;;;;12.68;9.63;;;1.80;91.90;;;;;;5054859;28;20064;-79
2022/03/31 08:27:45;;;;;;;16.92;10.38;;;1.80;91.80;;;;;;5070372;28;20028;-79
2022/03/31 08:30:18;;;;;;;11.55;8.20;;;1.80;91.50;;;;;;5070977;28;20017;-79
2022/03/31 08:32:46;;;;;;;14.77;9.60;;;1.80;91.60;;;;;;5041493;28;20037;-80
2022/03/31 08:35:13;;;;;;;9.80;7.03;;;1.80;90.90;;;;;;5063923;28;20054;-80
2022/03/31 08:37:38;;;;;;;8.40;5.93;;;1.60;90.40;;;;;;5067665;28;20044;-79
2022/03/31 08:40:06;;;;;;;10.63;6.43;;;1.70;90.60;;;;;;5072374;28;20029;-79
2022/03/31 08:42:32;;;;;;;13.20;8.63;;;1.90;91.00;;;;;;5055522;28;20052;-79
2022/03/31 08:44:59;;;;;;;9.57;6.55;;;2.00;90.90;;;;;;5076765;28;20066;-79
2022/03/31 08:47:26;;;;;;;12.63;6.75;;;1.90;90.40;;;;;;5066539;28;20021;-80
2022/03/31 08:49:53;;;;;;;12.13;6.15;;;1.90;90.20;;;;;;5052784;28;20056;-80
2022/03/31 08:52:19;;;;;;;10.90;6.38;;;2.10;90.10;;;;;;5076279;28;20065;-80
2022/03/31 08:54:44;;;;;;;12.23;6.07;;;2.30;90.50;;;;;;5057350;28;20558;-80
2022/03/31 08:57:10;;;;;;;11.23;5.13;;;2.40;90.20;;;;;;5069155;28;20032;-80
2022/03/31 08:59:35;;;;;;;10.23;5.93;;;2.40;88.80;;;;;;5058989;28;20035;-80
2022/03/31 09:02:01;;;;;;;10.07;6.43;;;2.70;89.10;;;;;;5091131;28;20028;-80
2022/03/31 09:04:27;;;;;;;11.73;5.90;;;2.60;88.80;;;;;;5082334;28;20031;-80
2022/03/31 09:07:07;;;;;;;7.40;4.45;;;2.70;89.10;;;;;;5069330;28;20025;-80
2022/03/31 09:09:50;;;;;;;12.00;5.50;;;2.60;88.40;;;;;;5085429;28;20090;-80
2022/03/31 09:12:16;;;;;;;12.63;6.53;;;2.90;88.70;;;;;;5077378;28;20056;-80
2022/03/31 09:14:42;;;;;;;9.38;5.47;;;3.20;88.70;;;;;;5054144;28;20113;-80
2022/03/31 09:17:12;;;;;;;9.40;5.10;;;3.20;88.20;;;;;;5061734;28;20024;-80
2022/03/31 09:19:38;;;;;;;11.70;5.53;;;3.50;88.50;;;;;;5058313;28;20140;-80
2022/03/31 09:22:04;;;;;;;11.70;6.00;;;3.30;87.60;;;;;;5075752;28;20121;-80
2022/03/31 09:24:31;;;;;;;8.30;3.95;;;3.40;87.80;;;;;;5057623;28;20099;-80
2022/03/31 09:26:58;;;;;;;7.80;4.30;;;3.20;87.40;;;;;;5070595;28;20031;-80
2022/03/31 09:29:28;;;;;;;9.90;4.50;;;2.90;86.80;;;;;;5066782;28;20110;-80
2022/03/31 09:32:23;;;;;;;10.98;4.82;;;3.10;87.90;;;;;;5056597;28;20028;-80
2022/03/31 09:34:48;;;;;;;11.02;4.65;;;3.30;88.40;;;;;;5063302;28;20033;-80
2022/03/31 09:37:15;;;;;;;8.25;4.50;;;3.40;88.00;;;;;;5061492;28;20036;-80
2022/03/31 09:39:41;;;;;;;8.65;4.60;;;3.10;87.20;;;;;;5066472;28;20400;-80
2022/03/31 09:42:12;;;;;;;6.75;4.22;;;3.00;87.50;;;;;;5057570;28;20570;-80
2022/03/31 09:44:38;;;;;;;6.35;3.38;;;3.20;87.80;;;;;;5074227;28;20077;-80
2022/03/31 09:47:04;;;;;;;6.72;4.05;;;3.20;87.20;;;;;;5056655;28;20396;-80
2022/03/31 09:49:29;;;;;;;7.78;4.38;;;3.20;87.10;;;;;;5077678;28;20040;-80
2022/03/31 09:52:04;;;;;;;6.25;3.58;;;3.30;87.00;;;;;;5091702;28;20032;-80
2022/03/31 09:54:32;;;;;;;9.02;4.32;;;3.20;86.10;;;;;;5059960;28;20404;-80
2022/03/31 09:56:59;;;;;;;6.95;3.97;;;3.50;86.80;;;;;;5080632;28;20032;-80
2022/03/31 09:59:38;;;;;;;6.20;3.65;;;3.40;86.10;;;;;;5077514;28;20032;-80
2022/03/31 10:02:04;;;;;;;7.43;3.78;;;3.40;85.70;;;;;;5064504;28;20107;-80
2022/03/31 10:04:31;;;;;;;6.80;4.10;;;3.60;85.80;;;;;;5077603;28;20024;-80
2022/03/31 10:06:58;;;;;;;8.32;4.00;;;3.90;85.80;;;;;;5073336;28;20055;-80
2022/03/31 10:09:24;;;;;;;9.60;3.85;;;4.10;85.50;;;;;;5053450;28;20082;-80
2022/03/31 10:12:03;;;;;;;6.65;4.22;;;4.10;84.40;;;;;;5055123;28;20051;-80
2022/03/31 10:14:31;;;;;;;9.18;4.10;;;4.40;84.10;;;;;;5080508;28;20115;-80
2022/03/31 10:16:59;;;;;;;10.20;4.30;;;4.60;83.70;;;;;;5075884;28;20359;-80
2022/03/31 10:19:35;;;;;;;7.40;3.80;;;4.50;82.70;;;;;;5065854;28;20033;-80
2022/03/31 10:22:03;;;;;;;8.30;3.55;;;4.30;81.70;;;;;;5074543;28;20307;-80
2022/03/31 10:24:41;;;;;;;8.60;3.80;;;4.30;82.60;;;;;;5065753;28;20404;-80
2022/03/31 10:27:09;;;;;;;10.77;4.13;;;4.30;82.60;;;;;;5043509;28;20028;-80
2022/03/31 10:29:42;;;;;;;7.32;4.15;;;4.30;82.10;;;;;;5065520;28;20040;-80
2022/03/31 10:32:22;;;;;;;6.55;3.90;;;4.50;82.60;;;;;;5048546;28;20036;-80
2022/03/31 10:34:54;;;;;;;8.18;4.20;;;4.60;82.50;;;;;;5084311;28;20028;-80
2022/03/31 10:37:39;;;;;;;;;;;5.00;82.60;;;;;;5078038;28;20044;-80
2022/03/31 10:40:09;;;;;;;7.82;4.00;;;5.00;80.50;;;;;;5059750;28;20310;-80
2022/03/31 10:42:36;;;;;;;6.00;3.45;;;4.90;81.30;;;;;;5050495;28;20035;-80
2022/03/31 10:45:13;;;;;;;5.75;3.60;;;4.60;80.00;;;;;;5083243;28;20097;-80
2022/03/31 10:47:41;;;;;;;6.35;3.80;;;4.80;80.00;;;;;;5047051;28;20074;-80
2022/03/31 10:50:22;;;;;;;6.55;3.63;;;4.90;80.90;;;;;;5056545;28;20020;-80
2022/03/31 10:53:00;;;;;;;6.72;3.85;;;5.00;80.10;;;;;;5073964;28;20379;-80
2022/03/31 10:55:38;;;;;;;6.68;3.38;;;5.00;79.20;;;;;;5047603;28;20040;-80
2022/03/31 10:58:05;;;;;;;5.22;3.05;;;4.80;77.90;;;;;;5046743;28;20507;-80
2022/03/31 11:00:30;;;;;;;6.18;3.40;;;4.80;76.90;;;;;;5082518;28;20020;-80
2022/03/31 11:02:56;;;;;;;6.88;3.22;;;5.10;77.00;;;;;;5061257;28;20043;-80
2022/03/31 11:05:22;;;;;;;6.60;3.35;;;5.30;76.70;;;;;;5048267;28;20565;-80
2022/03/31 11:07:48;;;;;;;5.70;3.10;;;5.40;76.00;;;;;;5071080;28;20036;-80
2022/03/31 11:10:17;;;;;;;7.75;3.00;;;5.50;74.30;;;;;;5057254;28;20093;-80
2022/03/31 11:12:43;;;;;;;6.80;2.67;;;5.40;73.30;;;;;;5087759;28;20046;-80
2022/03/31 11:15:11;;;;;;;5.75;2.67;;;5.40;72.60;;;;;;5069576;28;20119;-80
2022/03/31 11:17:39;;;;;;;6.80;3.28;;;5.80;73.70;;;;;;5068568;28;20066;-80
2022/03/31 11:20:14;;;;;;;5.72;3.00;;;5.80;72.30;;;;;;5074207;28;20052;-80
2022/03/31 11:22:50;;;;;;;7.22;2.65;;;5.80;72.10;;;;;;5054334;28;20021;-80
2022/03/31 11:25:16;;;;;;;4.82;2.80;;;5.90;71.90;;;;;;5058280;28;20029;-80
2022/03/31 11:27:43;;;;;;;7.20;3.83;;;6.20;71.60;;;;;;5053440;28;20040;-80
2022/03/31 11:30:22;;;;;;;7.30;3.40;;;6.20;70.80;;;;;;5068749;28;20123;-80
2022/03/31 11:32:52;;;;;;;5.40;3.08;;;6.30;69.90;;;;;;5070987;28;20036;-81
2022/03/31 11:35:20;;;;;;;5.90;3.15;;;6.40;70.60;;;;;;5081322;28;20036;-80
2022/03/31 11:37:47;;;;;;;6.60;2.72;;;6.40;69.20;;;;;;5057376;28;20154;-80
2022/03/31 11:40:37;;;;;;;4.20;2.60;;;6.80;69.30;;;;;;5052361;28;20056;-80
2022/03/31 11:43:05;;;;;;;4.97;2.70;;;6.90;66.80;;;;;;5076392;28;20032;-81
2022/03/31 11:45:37;;;;;;;6.15;2.63;;;7.10;66.90;;;;;;5092893;28;20028;-81
2022/03/31 11:48:07;;;;;;;6.43;2.67;;;6.80;65.40;;;;;;5080495;28;20036;-81
2022/03/31 11:50:36;;;;;;;5.32;2.80;;;7.10;64.80;;;;;;5051081;28;20066;-81
2022/03/31 11:53:02;;;;;;;8.10;3.30;;;7.00;64.60;;;;;;5053522;28;20028;-81
2022/03/31 11:55:29;;;;;;;5.75;2.42;;;7.70;65.10;;;;;;5051234;28;20096;-81
2022/03/31 11:57:58;;;;;;;6.60;2.00;;;7.20;64.00;;;;;;5051783;28;20033;-81
2022/03/31 12:00:27;;;;;;;6.72;2.00;;;7.10;61.50;;;;;;5073631;28;20021;-81
2022/03/31 12:02:56;;;;;;;4.85;2.05;;;6.90;59.90;;;;;;5079658;28;20458;-80
2022/03/31 12:05:22;;;;;;;4.10;2.05;;;6.90;62.80;;;;;;5059809;28;20028;-81
2022/03/31 12:07:50;;;;;;;5.00;2.22;;;6.80;60.80;;;;;;5074247;28;20475;-81
2022/03/31 12:10:15;;;;;;;5.72;2.13;;;7.00;60.30;;;;;;5047791;28;20033;-81
2022/03/31 12:12:53;;;;;;;5.70;2.40;;;7.10;61.60;;;;;;5055217;28;20169;-81
2022/03/31 12:15:26;;;;;;;4.40;1.85;;;7.40;60.10;;;;;;5060881;28;20032;-80
2022/03/31 12:18:07;;;;;;;2.97;1.98;;;7.50;57.90;;;;;;5054106;28;20036;-80
2022/03/31 12:20:35;;;;;;;4.85;2.20;;;7.80;57.80;;;;;;5058932;28;20495;-80
2022/03/31 12:23:01;;;;;;;4.20;2.33;;;8.50;60.30;;;;;;5071200;28;20061;-81
2022/03/31 12:25:35;;;;;;;3.17;2.03;;;8.30;56.80;;;;;;5067469;28;20032;-81
2022/03/31 12:28:06;;;;;;;5.03;1.85;;;8.30;57.40;;;;;;5063057;28;20033;-81
2022/03/31 12:30:41;;;;;;;5.40;2.40;;;8.10;54.40;;;;;;5043678;28;20075;-81
2022/03/31 12:33:39;;;;;;;3.70;1.85;;;8.00;56.90;;;;;;5045846;28;20032;-81
2022/03/31 12:36:07;;;;;;;4.03;1.92;;;7.30;54.80;;;;;;5064160;28;20036;-81
2022/03/31 12:38:36;;;;;;;4.18;1.55;;;7.20;52.50;;;;;;5072816;28;20040;-81
2022/03/31 12:41:03;;;;;;;10.30;2.67;;;7.70;56.30;;;;;;5072988;28;20035;-81
2022/03/31 12:43:28;;;;;;;5.72;2.25;;;8.00;56.10;;;;;;5050111;28;20040;-81
2022/03/31 12:45:54;;;;;;;5.50;2.15;;;7.80;54.80;;;;;;5054014;28;20616;-80
2022/03/31 12:48:20;;;;;;;3.97;1.60;;;7.60;50.80;;;;;;5054414;28;20020;-80
2022/03/31 12:50:46;;;;;;;2.83;1.75;;;7.50;50.10;;;;;;5053789;28;20496;-80
2022/03/31 12:53:12;;;;;;;4.45;1.67;;;7.60;51.50;;;;;;5055648;28;20107;-81